Time;durP1;ratioP1;P1;durP2;ratioP2;P2;SDS_P1;SDS_P2;PMS_P1;PMS_P2;Temp;Humidity;BMP_temperature;BMP_pressure;BME280_temperature;BME280_humidity;BME280_pressure;Samples;Min_cycle;Max_cycle;Signal;HPM_P1;HPM_P2
2022/12/07 00:01:55;;;;;;;11.13;2.22;;;;;;;;;;5041822;28;20056;-73
2022/12/07 00:04:21;;;;;;;7.38;0.95;;;;;;;;;;5061533;28;20049;-73
2022/12/07 00:06:51;;;;;;;5.32;1.02;;;;;;;;;;5039511;28;20045;-73
2022/12/07 00:09:18;;;;;;;4.75;1.90;;;;;;;;;;5045413;28;20044;-73
2022/12/07 00:11:44;;;;;;;10.27;3.42;;;;;;;;;;5057656;28;20138;-73
2022/12/07 00:14:12;;;;;;;3.20;0.80;;;;;;;;;;5056516;28;20135;-73
2022/12/07 00:16:38;;;;;;;6.15;0.75;;;;;;;;;;5043768;28;20113;-72
2022/12/07 00:19:04;;;;;;;8.50;0.93;;;;;;;;;;5062729;28;20170;-73
2022/12/07 00:21:32;;;;;;;7.40;1.05;;;;;;;;;;5043919;28;20066;-73
2022/12/07 00:23:59;;;;;;;6.93;1.40;;;;;;;;;;5057575;28;20064;-73
2022/12/07 00:26:26;;;;;;;7.28;1.00;;;;;;;;;;5045332;28;20062;-73
2022/12/07 00:28:53;;;;;;;8.05;1.23;;;;;;;;;;5042876;28;20142;-73
2022/12/07 00:31:20;;;;;;;12.20;1.73;;;;;;;;;;5042270;28;20106;-73
2022/12/07 00:33:47;;;;;;;9.40;1.13;;;;;;;;;;5049810;28;20146;-73
2022/12/07 00:36:15;;;;;;;5.35;1.52;;;;;;;;;;5058521;28;20052;-73
2022/12/07 00:38:41;;;;;;;7.43;1.25;;;;;;;;;;5048255;28;20060;-73
2022/12/07 00:41:10;;;;;;;4.95;1.00;;;;;;;;;;5048184;28;20167;-73
2022/12/07 00:43:36;;;;;;;6.82;1.02;;;;;;;;;;5034133;28;20060;-73
2022/12/07 00:46:02;;;;;;;12.95;1.60;;;;;;;;;;5045316;28;20044;-73
2022/12/07 00:48:28;;;;;;;13.05;1.45;;;;;;;;;;5027254;28;20108;-73
2022/12/07 00:50:54;;;;;;;13.27;2.03;;;;;;;;;;5035720;28;21045;-73
2022/12/07 00:53:20;;;;;;;12.32;1.45;;;;;;;;;;5036439;28;20091;-73
2022/12/07 00:55:46;;;;;;;12.85;1.70;;;;;;;;;;5035115;28;20047;-73
2022/12/07 00:58:12;;;;;;;15.20;1.67;;;;;;;;;;5060721;28;20125;-73
2022/12/07 01:00:40;;;;;;;17.50;1.60;;;;;;;;;;5062154;28;20178;-73
2022/12/07 01:03:07;;;;;;;16.25;2.83;;;;;;;;;;5062100;28;20480;-73
2022/12/07 01:05:33;;;;;;;7.68;1.38;;;;;;;;;;5046850;28;20067;-72
2022/12/07 01:07:59;;;;;;;8.18;1.30;;;;;;;;;;5046988;28;20912;-73
2022/12/07 01:10:26;;;;;;;14.20;1.88;;;;;;;;;;5047483;28;20167;-73
2022/12/07 01:12:52;;;;;;;12.10;1.45;;;;;;;;;;5028487;28;21896;-73
2022/12/07 01:15:18;;;;;;;12.13;1.50;;;;;;;;;;5054804;28;20067;-73
2022/12/07 01:17:44;;;;;;;20.27;2.03;;;;;;;;;;5027471;28;20135;-72
2022/12/07 01:20:10;;;;;;;8.93;1.60;;;;;;;;;;5046687;28;20141;-73
2022/12/07 01:22:37;;;;;;;14.43;1.85;;;;;;;;;;5059162;28;20911;-72
2022/12/07 01:25:04;;;;;;;14.23;1.85;;;;;;;;;;5031559;28;20040;-72
2022/12/07 01:27:30;;;;;;;4.93;1.17;;;;;;;;;;5059987;28;20408;-73
2022/12/07 01:29:56;;;;;;;15.95;1.40;;;;;;;;;;5062561;28;20052;-73
2022/12/07 01:32:22;;;;;;;10.38;1.77;;;;;;;;;;5027109;28;20044;-73
2022/12/07 01:34:48;;;;;;;8.35;1.17;;;;;;;;;;5040587;28;20499;-73
2022/12/07 01:37:14;;;;;;;12.95;1.48;;;;;;;;;;5045506;28;20062;-73
2022/12/07 01:39:41;;;;;;;6.55;0.98;;;;;;;;;;5059376;28;20109;-73
2022/12/07 01:42:10;;;;;;;7.25;1.10;;;;;;;;;;5032481;28;20138;-73
2022/12/07 01:45:08;;;;;;;8.18;1.33;;;;;;;;;;5046816;28;20052;-73
2022/12/07 01:47:34;;;;;;;8.13;1.13;;;;;;;;;;5044213;28;20048;-72
2022/12/07 01:50:00;;;;;;;4.53;1.00;;;;;;;;;;5053961;28;20195;-73
2022/12/07 01:52:28;;;;;;;9.20;1.27;;;;;;;;;;5033959;28;20040;-73
2022/12/07 01:55:00;;;;;;;9.73;1.48;;;;;;;;;;5039311;28;20052;-72
2022/12/07 01:57:26;;;;;;;9.90;1.20;;;;;;;;;;5046400;28;20057;-73
2022/12/07 01:59:54;;;;;;;9.38;1.20;;;;;;;;;;5050911;28;20052;-73
2022/12/07 02:02:23;;;;;;;9.27;1.20;;;;;;;;;;5061708;28;20044;-72
2022/12/07 02:04:49;;;;;;;12.90;1.30;;;;;;;;;;5055387;28;20052;-75
2022/12/07 02:07:16;;;;;;;12.93;1.63;;;;;;;;;;5039819;28;20068;-73
2022/12/07 02:09:42;;;;;;;14.18;2.33;;;;;;;;;;5070943;28;20048;-72
2022/12/07 02:12:08;;;;;;;10.38;1.42;;;;;;;;;;5051310;28;20130;-72
2022/12/07 02:14:34;;;;;;;12.00;2.08;;;;;;;;;;5042109;28;20136;-71
2022/12/07 02:17:04;;;;;;;14.10;1.50;;;;;;;;;;5052445;28;20132;-72
2022/12/07 02:19:36;;;;;;;16.42;1.40;;;;;;;;;;5062130;28;20468;-72
2022/12/07 02:22:26;;;;;;;22.83;1.75;;;;;;;;;;5073043;28;20197;-72
2022/12/07 02:24:59;;;;;;;11.65;1.27;;;;;;;;;;5031521;28;20067;-73
2022/12/07 02:27:34;;;;;;;13.63;1.70;;;;;;;;;;5065132;28;20182;-72
2022/12/07 02:30:07;;;;;;;17.33;1.85;;;;;;;;;;5063924;28;20059;-72
2022/12/07 02:32:33;;;;;;;14.15;1.52;;;;;;;;;;5042816;28;20803;-72
2022/12/07 02:35:04;;;;;;;20.48;2.08;;;;;;;;;;5060245;28;20059;-73
2022/12/07 02:37:35;;;;;;;13.35;1.95;;;;;;;;;;5031878;28;20815;-72
2022/12/07 02:40:13;;;;;;;13.07;2.30;;;;;;;;;;5043216;28;20048;-72
2022/12/07 02:43:06;;;;;;;19.25;1.85;;;;;;;;;;5038791;28;20104;-72
2022/12/07 02:45:34;;;;;;;19.90;2.15;;;;;;;;;;5025774;28;20690;-73
2022/12/07 02:48:01;;;;;;;17.98;1.85;;;;;;;;;;5026635;28;20196;-73
2022/12/07 02:50:27;;;;;;;22.23;1.83;;;;;;;;;;5038818;28;20052;-73
2022/12/07 02:52:54;;;;;;;10.43;1.67;;;;;;;;;;5041960;28;20067;-73
2022/12/07 02:55:23;;;;;;;8.98;0.70;;;;;;;;;;5053120;28;20048;-74
2022/12/07 02:57:54;;;;;;;8.45;1.60;;;;;;;;;;5037763;28;22259;-73
2022/12/07 03:00:21;;;;;;;10.57;1.00;;;;;;;;;;5055265;28;20761;-73
2022/12/07 03:03:09;;;;;;;7.22;0.98;;;;;;;;;;5041892;28;20089;-73
2022/12/07 03:05:35;;;;;;;6.38;0.70;;;;;;;;;;5050126;28;20075;-73
2022/12/07 03:08:01;;;;;;;2.53;0.70;;;;;;;;;;5039327;28;20049;-73
2022/12/07 03:10:46;;;;;;;8.82;1.13;;;;;;;;;;5041632;28;20904;-73
2022/12/07 03:13:15;;;;;;;6.80;0.77;;;;;;;;;;5031882;28;20051;-72
2022/12/07 03:16:00;;;;;;;7.47;1.20;;;;;;;;;;5039236;28;20161;-72
2022/12/07 03:18:29;;;;;;;6.85;0.95;;;;;;;;;;5055259;28;20068;-73
2022/12/07 03:20:57;;;;;;;10.95;0.82;;;;;;;;;;5039047;28;20048;-72
2022/12/07 03:23:25;;;;;;;10.00;1.23;;;;;;;;;;5039660;28;20068;-73
2022/12/07 03:25:55;;;;;;;5.63;0.85;;;;;;;;;;5039951;28;20919;-72
2022/12/07 03:28:23;;;;;;;11.88;1.85;;;;;;;;;;5038225;28;20511;-72
2022/12/07 03:31:09;;;;;;;8.65;0.80;;;;;;;;;;5032073;28;20055;-72
2022/12/07 03:33:59;;;;;;;5.50;0.90;;;;;;;;;;5037610;28;20197;-72
2022/12/07 03:36:29;;;;;;;11.77;1.83;;;;;;;;;;5033599;28;20045;-72
2022/12/07 03:39:03;;;;;;;6.68;1.92;;;;;;;;;;5039880;28;20065;-73
2022/12/07 03:41:31;;;;;;;9.50;1.58;;;;;;;;;;5027438;28;20051;-72
2022/12/07 03:43:58;;;;;;;12.32;1.98;;;;;;;;;;5042611;28;20843;-73
2022/12/07 03:46:24;;;;;;;16.63;2.05;;;;;;;;;;5042896;28;20056;-72
2022/12/07 03:48:50;;;;;;;12.18;1.65;;;;;;;;;;5040389;28;20048;-73
2022/12/07 03:51:26;;;;;;;9.52;1.05;;;;;;;;;;5042380;28;20136;-73
2022/12/07 03:54:00;;;;;;;21.65;1.60;;;;;;;;;;5037675;28;20056;-73
2022/12/07 03:56:27;;;;;;;20.23;1.80;;;;;;;;;;5053082;28;20048;-73
2022/12/07 03:58:54;;;;;;;10.70;1.33;;;;;;;;;;5039021;28;20101;-72
2022/12/07 04:01:20;;;;;;;13.40;1.35;;;;;;;;;;5040695;28;20051;-72
2022/12/07 04:03:46;;;;;;;5.05;1.20;;;;;;;;;;5028234;28;20438;-73
2022/12/07 04:06:12;;;;;;;10.20;0.82;;;;;;;;;;5039254;28;20411;-73
2022/12/07 04:08:38;;;;;;;20.70;1.58;;;;;;;;;;5038433;28;20048;-72
2022/12/07 04:11:04;;;;;;;9.15;0.80;;;;;;;;;;5041664;28;20055;-72
2022/12/07 04:14:17;;;;;;;5.70;1.10;;;;;;;;;;5040040;28;20086;-72
2022/12/07 04:16:16;;;;;;;11.07;0.93;;;;;;;;;;5053069;28;20493;-72
2022/12/07 04:18:42;;;;;;;7.30;1.33;;;;;;;;;;5051479;28;20514;-72
2022/12/07 04:21:08;;;;;;;14.82;1.20;;;;;;;;;;5038609;28;20051;-73
2022/12/07 04:23:34;;;;;;;11.25;1.30;;;;;;;;;;5050542;28;20048;-73
2022/12/07 04:26:00;;;;;;;14.10;1.52;;;;;;;;;;5059018;28;20063;-73
2022/12/07 04:28:26;;;;;;;11.55;2.03;;;;;;;;;;5052450;28;20182;-72
2022/12/07 04:30:53;;;;;;;19.10;2.00;;;;;;;;;;5037292;28;20088;-73
2022/12/07 04:33:19;;;;;;;8.75;1.17;;;;;;;;;;5040153;28;20125;-73
2022/12/07 04:35:45;;;;;;;15.32;2.30;;;;;;;;;;5046658;28;20048;-72
2022/12/07 04:38:11;;;;;;;13.93;1.30;;;;;;;;;;5058252;28;20500;-73
2022/12/07 04:40:37;;;;;;;10.65;1.70;;;;;;;;;;5042670;28;20053;-72
2022/12/07 04:43:04;;;;;;;9.77;1.33;;;;;;;;;;5054297;28;20044;-72
2022/12/07 04:45:30;;;;;;;6.63;1.08;;;;;;;;;;5042191;28;20503;-72
2022/12/07 04:47:56;;;;;;;5.05;0.90;;;;;;;;;;5049779;28;20408;-73
2022/12/07 04:50:22;;;;;;;5.50;0.80;;;;;;;;;;5036337;28;20447;-72
2022/12/07 04:52:48;;;;;;;4.00;0.90;;;;;;;;;;5038751;28;20113;-72
2022/12/07 04:55:14;;;;;;;3.58;0.93;;;;;;;;;;5053330;28;20052;-72
2022/12/07 04:57:40;;;;;;;4.13;0.60;;;;;;;;;;5031151;28;20112;-72
2022/12/07 05:00:07;;;;;;;5.30;1.08;;;;;;;;;;5059120;28;20051;-72
2022/12/07 05:02:33;;;;;;;5.47;0.73;;;;;;;;;;5053167;28;20423;-72
2022/12/07 05:04:59;;;;;;;4.30;0.80;;;;;;;;;;5052543;28;21143;-73
2022/12/07 05:07:25;;;;;;;5.60;1.85;;;;;;;;;;5039900;28;20500;-72
2022/12/07 05:09:51;;;;;;;3.90;1.05;;;;;;;;;;5057960;28;20044;-72
2022/12/07 05:12:17;;;;;;;4.70;0.68;;;;;;;;;;5061129;28;20051;-72
2022/12/07 05:14:43;;;;;;;8.80;1.00;;;;;;;;;;5055748;28;20067;-72
2022/12/07 05:17:11;;;;;;;3.08;0.65;;;;;;;;;;5053172;28;20125;-72
2022/12/07 05:19:37;;;;;;;10.43;1.13;;;;;;;;;;5058677;28;20055;-72
2022/12/07 05:22:03;;;;;;;10.73;1.50;;;;;;;;;;5043941;28;20094;-72
2022/12/07 05:24:29;;;;;;;8.68;0.90;;;;;;;;;;5056077;28;20056;-72
2022/12/07 05:26:55;;;;;;;4.47;0.90;;;;;;;;;;5044177;28;20051;-72
2022/12/07 05:29:21;;;;;;;6.43;0.88;;;;;;;;;;5054220;28;20050;-72
2022/12/07 05:31:47;;;;;;;6.55;1.45;;;;;;;;;;5053934;28;20149;-72
2022/12/07 05:34:13;;;;;;;9.23;1.13;;;;;;;;;;5040270;28;20083;-72
2022/12/07 05:36:39;;;;;;;7.38;0.98;;;;;;;;;;5041666;28;20166;-72
2022/12/07 05:39:07;;;;;;;7.22;1.02;;;;;;;;;;5022920;28;20052;-72
2022/12/07 05:44:17;;;;;;;;;;;;;;;;;;5044815;28;20051;-74
2022/12/07 05:46:43;;;;;;;11.40;1.30;;;;;;;;;;5048478;28;19920;-74
2022/12/07 05:49:09;;;;;;;6.05;0.82;;;;;;;;;;5042186;28;20055;-74
2022/12/07 05:51:35;;;;;;;6.07;1.35;;;;;;;;;;5044622;28;20411;-74
2022/12/07 05:54:01;;;;;;;5.53;1.10;;;;;;;;;;5047156;28;22006;-74
2022/12/07 05:56:27;;;;;;;8.35;1.30;;;;;;;;;;5046733;28;20064;-74
2022/12/07 06:01:39;;;;;;;12.40;1.20;;;;;;;;;;5068532;28;20039;-74
2022/12/07 06:04:06;;;;;;;8.45;1.20;;;;;;;;;;5054948;28;20057;-74
2022/12/07 06:06:32;;;;;;;12.73;2.22;;;;;;;;;;5048953;28;20054;-74
2022/12/07 06:08:58;;;;;;;8.48;1.67;;;;;;;;;;5029304;28;20087;-74
2022/12/07 06:14:09;;;;;;;12.20;1.92;;;;;;;;;;5043775;28;20543;-73
2022/12/07 06:16:35;;;;;;;13.45;1.90;;;;;;;;;;5041347;28;20424;-74
2022/12/07 06:19:01;;;;;;;15.15;1.90;;;;;;;;;;5044811;28;20086;-74
2022/12/07 06:21:27;;;;;;;11.20;1.60;;;;;;;;;;5037902;28;20056;-74
2022/12/07 06:23:53;;;;;;;19.20;1.48;;;;;;;;;;5040700;28;20052;-74
2022/12/07 06:26:19;;;;;;;10.65;1.45;;;;;;;;;;5038945;28;20055;-74
2022/12/07 06:28:45;;;;;;;9.10;1.20;;;;;;;;;;5024578;28;21994;-74
2022/12/07 06:31:12;;;;;;;8.88;1.42;;;;;;;;;;5042706;28;20039;-74
2022/12/07 06:33:38;;;;;;;10.98;1.77;;;;;;;;;;5042703;28;20580;-74
2022/12/07 06:36:04;;;;;;;9.95;1.30;;;;;;;;;;5044171;28;20998;-74
2022/12/07 06:38:30;;;;;;;9.60;1.75;;;;;;;;;;5044423;28;20147;-74
2022/12/07 06:40:56;;;;;;;9.32;1.33;;;;;;;;;;5045236;28;22067;-74
2022/12/07 06:43:22;;;;;;;11.70;1.25;;;;;;;;;;5059434;28;20737;-73
2022/12/07 06:45:48;;;;;;;12.98;1.40;;;;;;;;;;5043527;28;21359;-74
2022/12/07 06:48:14;;;;;;;14.73;1.42;;;;;;;;;;5043624;28;20151;-73
2022/12/07 06:50:40;;;;;;;17.17;1.35;;;;;;;;;;5058053;28;20052;-73
2022/12/07 06:53:06;;;;;;;11.82;1.50;;;;;;;;;;5043954;28;20144;-74
2022/12/07 06:55:32;;;;;;;17.70;2.60;;;;;;;;;;5055278;28;20062;-73
2022/12/07 06:57:59;;;;;;;7.82;1.58;;;;;;;;;;5044919;28;20467;-74
2022/12/07 07:00:25;;;;;;;11.15;1.23;;;;;;;;;;5043858;28;20515;-73
2022/12/07 07:02:51;;;;;;;13.50;1.75;;;;;;;;;;5027009;28;20727;-73
2022/12/07 07:05:17;;;;;;;16.48;2.08;;;;;;;;;;5044814;28;20074;-73
2022/12/07 07:07:43;;;;;;;19.00;2.20;;;;;;;;;;5049265;28;20051;-73
2022/12/07 07:10:09;;;;;;;13.55;1.77;;;;;;;;;;5066040;28;20048;-73
2022/12/07 07:12:35;;;;;;;7.40;1.85;;;;;;;;;;5049316;28;20150;-73
2022/12/07 07:15:01;;;;;;;16.58;2.35;;;;;;;;;;5057282;28;20048;-73
2022/12/07 07:17:27;;;;;;;12.70;2.72;;;;;;;;;;5053479;28;20059;-74
2022/12/07 07:19:53;;;;;;;13.15;2.20;;;;;;;;;;5050663;28;20052;-74
2022/12/07 07:22:19;;;;;;;16.35;2.72;;;;;;;;;;5039600;28;20300;-73
2022/12/07 07:24:46;;;;;;;15.90;2.38;;;;;;;;;;5062508;28;20143;-73
2022/12/07 07:27:12;;;;;;;12.35;1.75;;;;;;;;;;5063786;28;20056;-73
2022/12/07 07:29:38;;;;;;;16.00;2.72;;;;;;;;;;5046863;28;20052;-76
2022/12/07 07:32:04;;;;;;;17.27;2.05;;;;;;;;;;5046877;28;20131;-76
2022/12/07 07:34:30;;;;;;;16.10;2.25;;;;;;;;;;5038923;28;20052;-75
2022/12/07 07:36:56;;;;;;;10.88;1.85;;;;;;;;;;5043306;28;20122;-76
2022/12/07 07:39:22;;;;;;;9.30;1.83;;;;;;;;;;5050795;28;20058;-76
2022/12/07 07:41:48;;;;;;;41.42;4.32;;;;;;;;;;5044202;28;20055;-76
2022/12/07 07:44:14;;;;;;;16.73;1.73;;;;;;;;;;5063270;28;20056;-75
2022/12/07 07:46:40;;;;;;;19.92;2.33;;;;;;;;;;5035961;28;20109;-76
2022/12/07 07:49:06;;;;;;;11.00;3.10;;;;;;;;;;5027280;28;20051;-75
2022/12/07 07:51:32;;;;;;;18.60;2.35;;;;;;;;;;5027609;28;20084;-75
2022/12/07 07:54:00;;;;;;;12.88;1.95;;;;;;;;;;5050174;28;20210;-75
2022/12/07 07:56:26;;;;;;;18.52;2.28;;;;;;;;;;5057475;28;20055;-75
2022/12/07 07:58:53;;;;;;;12.30;2.15;;;;;;;;;;5023909;28;20147;-76
2022/12/07 08:01:21;;;;;;;11.75;2.53;;;;;;;;;;5041607;28;20039;-75
2022/12/07 08:03:48;;;;;;;11.57;2.33;;;;;;;;;;5040058;28;20973;-75
2022/12/07 08:06:14;;;;;;;12.40;2.00;;;;;;;;;;5043317;28;20599;-76
2022/12/07 08:08:40;;;;;;;19.05;2.70;;;;;;;;;;5043317;28;20109;-75
2022/12/07 08:11:06;;;;;;;17.10;3.67;;;;;;;;;;5045819;28;20102;-76
2022/12/07 08:13:32;;;;;;;13.88;3.70;;;;;;;;;;5043698;28;20063;-76
2022/12/07 08:15:59;;;;;;;17.20;3.42;;;;;;;;;;5055605;28;20064;-75
2022/12/07 08:18:25;;;;;;;17.00;2.58;;;;;;;;;;5055594;28;20079;-75
2022/12/07 08:20:51;;;;;;;16.08;2.65;;;;;;;;;;5043613;28;22097;-76
2022/12/07 08:23:17;;;;;;;15.68;3.00;;;;;;;;;;5045680;28;20129;-75
2022/12/07 08:25:43;;;;;;;8.65;2.25;;;;;;;;;;5038458;28;20071;-75
2022/12/07 08:28:09;;;;;;;13.57;3.00;;;;;;;;;;5023404;28;20143;-75
2022/12/07 08:30:35;;;;;;;17.73;2.03;;;;;;;;;;5037485;28;20080;-76
2022/12/07 08:33:01;;;;;;;12.18;2.03;;;;;;;;;;5045147;28;20060;-75
2022/12/07 08:35:27;;;;;;;9.68;1.60;;;;;;;;;;5016529;28;20051;-75
2022/12/07 08:37:53;;;;;;;18.10;2.38;;;;;;;;;;5040815;28;20092;-76
2022/12/07 08:40:20;;;;;;;8.98;2.15;;;;;;;;;;5009255;28;20075;-75
2022/12/07 08:42:50;;;;;;;7.40;1.20;;;;;;;;;;5056327;28;20897;-75
2022/12/07 08:45:17;;;;;;;9.55;1.02;;;;;;;;;;5039312;28;20054;-74
2022/12/07 08:47:50;;;;;;;2.95;0.70;;;;;;;;;;5019304;28;20710;-74
2022/12/07 08:50:17;;;;;;;6.25;1.00;;;;;;;;;;5029220;28;20093;-75
2022/12/07 08:52:44;;;;;;;8.07;1.05;;;;;;;;;;5058548;28;20098;-75
2022/12/07 08:55:11;;;;;;;3.25;0.85;;;;;;;;;;5038967;28;20043;-79
2022/12/07 08:57:38;;;;;;;5.00;0.90;;;;;;;;;;5032322;28;20050;-77
2022/12/07 09:00:04;;;;;;;7.93;1.10;;;;;;;;;;5070501;28;20118;-78
2022/12/07 09:02:31;;;;;;;11.25;1.25;;;;;;;;;;5056182;28;20685;-77
2022/12/07 09:04:57;;;;;;;7.50;1.15;;;;;;;;;;5042655;28;20202;-75
2022/12/07 09:07:25;;;;;;;3.63;1.70;;;;;;;;;;5023806;28;20230;-74
2022/12/07 09:09:51;;;;;;;6.72;1.40;;;;;;;;;;5029818;28;20147;-75
2022/12/07 09:12:17;;;;;;;10.93;2.35;;;;;;;;;;5051134;28;20058;-75
2022/12/07 09:14:43;;;;;;;6.10;1.30;;;;;;;;;;5029500;28;20204;-74
2022/12/07 09:17:10;;;;;;;9.23;1.38;;;;;;;;;;5056462;28;22011;-74
2022/12/07 09:19:37;;;;;;;10.75;1.23;;;;;;;;;;5030786;28;20121;-74
2022/12/07 09:22:04;;;;;;;3.35;1.00;;;;;;;;;;5022490;28;20126;-74
2022/12/07 09:24:31;;;;;;;10.27;1.52;;;;;;;;;;5043950;28;20056;-75
2022/12/07 09:26:57;;;;;;;6.22;1.42;;;;;;;;;;5031875;28;20071;-75
2022/12/07 09:29:23;;;;;;;10.73;1.42;;;;;;;;;;5029303;28;20043;-76
2022/12/07 09:31:49;;;;;;;10.88;1.50;;;;;;;;;;5046914;28;20048;-75
2022/12/07 09:34:16;;;;;;;5.13;1.30;;;;;;;;;;5053373;28;20143;-76
2022/12/07 09:36:42;;;;;;;10.70;2.15;;;;;;;;;;5044626;28;20059;-75
2022/12/07 09:39:08;;;;;;;6.55;1.40;;;;;;;;;;5061295;28;20056;-75
2022/12/07 09:41:38;;;;;;;6.00;0.85;;;;;;;;;;5052650;28;20123;-75
2022/12/07 09:44:06;;;;;;;6.75;1.48;;;;;;;;;;5047262;28;20051;-75
2022/12/07 09:46:42;;;;;;;8.68;1.20;;;;;;;;;;5059235;28;20133;-76
2022/12/07 09:49:18;;;;;;;10.55;1.33;;;;;;;;;;5045915;28;20059;-75
2022/12/07 09:51:44;;;;;;;8.85;1.30;;;;;;;;;;5043741;28;20043;-75
2022/12/07 09:54:14;;;;;;;11.95;2.30;;;;;;;;;;5061407;28;20109;-75
2022/12/07 09:56:40;;;;;;;11.13;1.40;;;;;;;;;;5048216;28;20500;-75
2022/12/07 09:59:10;;;;;;;8.40;1.38;;;;;;;;;;5035521;28;20102;-76
2022/12/07 10:01:39;;;;;;;24.10;2.03;;;;;;;;;;5047891;28;20048;-75
2022/12/07 10:04:14;;;;;;;11.25;1.30;;;;;;;;;;5060676;28;20931;-75
2022/12/07 10:06:40;;;;;;;9.63;1.40;;;;;;;;;;5048303;28;20050;-74
2022/12/07 10:09:13;;;;;;;13.05;1.75;;;;;;;;;;5048301;28;20623;-76
2022/12/07 10:11:58;;;;;;;10.02;1.58;;;;;;;;;;5048302;28;20075;-75
2022/12/07 10:14:24;;;;;;;9.98;1.20;;;;;;;;;;5033456;28;20480;-75
2022/12/07 10:16:50;;;;;;;5.53;0.95;;;;;;;;;;5062151;28;21358;-75
2022/12/07 10:19:22;;;;;;;14.75;1.63;;;;;;;;;;5048519;28;20174;-75
2022/12/07 10:22:12;;;;;;;8.45;1.50;;;;;;;;;;5061656;28;20071;-75
2022/12/07 10:24:40;;;;;;;14.20;1.35;;;;;;;;;;5024888;28;20079;-75
2022/12/07 10:27:18;;;;;;;9.15;0.90;;;;;;;;;;5059223;28;20055;-75
2022/12/07 10:29:48;;;;;;;10.40;1.40;;;;;;;;;;5048534;28;20056;-75
2022/12/07 10:32:17;;;;;;;6.30;0.90;;;;;;;;;;5048016;28;20138;-75
2022/12/07 10:34:43;;;;;;;8.32;0.80;;;;;;;;;;5054887;28;20399;-75
2022/12/07 10:37:09;;;;;;;10.35;1.10;;;;;;;;;;5048846;28;20055;-75
2022/12/07 10:39:41;;;;;;;16.27;3.17;;;;;;;;;;5061062;28;20063;-75
2022/12/07 10:42:15;;;;;;;4.78;1.10;;;;;;;;;;5061292;28;20139;-75
2022/12/07 10:44:42;;;;;;;;;;;;;;;;;;5065308;28;20052;-74
2022/12/07 10:47:20;;;;;;;6.38;1.40;;;;;;;;;;5050414;28;20015;-75
2022/12/07 10:49:55;;;;;;;4.63;0.90;;;;;;;;;;5049459;28;20131;-76
2022/12/07 10:52:27;;;;;;;5.82;0.60;;;;;;;;;;5049998;28;20041;-75
2022/12/07 10:55:15;;;;;;;3.75;0.70;;;;;;;;;;5060516;28;20699;-74
2022/12/07 10:57:41;;;;;;;9.07;1.52;;;;;;;;;;5047343;28;20044;-75
2022/12/07 11:00:10;;;;;;;6.15;0.73;;;;;;;;;;5046351;28;20138;-75
2022/12/07 11:02:54;;;;;;;6.40;1.05;;;;;;;;;;5066059;28;20126;-77
2022/12/07 11:05:40;;;;;;;8.23;1.27;;;;;;;;;;5064880;28;20052;-77
2022/12/07 11:08:25;;;;;;;10.00;1.30;;;;;;;;;;5052856;28;20052;-76
2022/12/07 11:10:54;;;;;;;12.18;1.38;;;;;;;;;;5058810;28;20091;-77
2022/12/07 11:13:20;;;;;;;5.63;1.73;;;;;;;;;;5026660;28;20040;-77
2022/12/07 11:15:53;;;;;;;8.30;0.98;;;;;;;;;;5049092;28;20055;-77
2022/12/07 11:18:32;;;;;;;7.70;1.52;;;;;;;;;;5044135;28;20381;-77
2022/12/07 11:21:04;;;;;;;5.18;0.95;;;;;;;;;;5050635;28;20408;-78
2022/12/07 11:23:49;;;;;;;5.25;1.25;;;;;;;;;;5061882;28;20618;-76
2022/12/07 11:26:15;;;;;;;5.15;1.25;;;;;;;;;;5050694;28;20043;-76
2022/12/07 11:28:41;;;;;;;7.53;1.15;;;;;;;;;;5031384;28;20495;-76
2022/12/07 11:31:19;;;;;;;2.83;0.60;;;;;;;;;;5052919;28;20771;-76
2022/12/07 11:34:08;;;;;;;10.98;1.10;;;;;;;;;;5059568;28;20078;-77
2022/12/07 11:36:41;;;;;;;4.22;1.08;;;;;;;;;;5068894;28;20580;-76
2022/12/07 11:39:23;;;;;;;4.55;0.98;;;;;;;;;;5053491;28;20135;-76
2022/12/07 11:41:53;;;;;;;4.85;0.82;;;;;;;;;;5049800;28;20110;-75
2022/12/07 11:44:31;;;;;;;3.83;0.57;;;;;;;;;;5052441;28;20087;-76
2022/12/07 11:47:16;;;;;;;5.90;0.95;;;;;;;;;;5047848;28;20083;-75
2022/12/07 11:49:42;;;;;;;4.55;0.90;;;;;;;;;;5048589;28;20095;-75
2022/12/07 11:52:14;;;;;;;3.13;0.70;;;;;;;;;;5051411;28;20096;-76
2022/12/07 11:54:42;;;;;;;5.45;0.90;;;;;;;;;;5065252;28;20512;-75
2022/12/07 11:57:20;;;;;;;5.57;0.75;;;;;;;;;;5082478;28;20110;-76
2022/12/07 11:59:59;;;;;;;3.10;0.80;;;;;;;;;;5065475;28;20044;-76
2022/12/07 12:02:33;;;;;;;5.13;0.55;;;;;;;;;;5054398;28;20403;-76
2022/12/07 12:05:06;;;;;;;11.35;1.05;;;;;;;;;;5052630;28;20171;-76
2022/12/07 12:07:32;;;;;;;2.95;0.55;;;;;;;;;;5060590;28;20113;-76
2022/12/07 12:10:06;;;;;;;2.33;0.60;;;;;;;;;;5074740;28;20040;-75
2022/12/07 12:12:39;;;;;;;4.97;1.02;;;;;;;;;;5052800;28;20140;-75
2022/12/07 12:15:05;;;;;;;3.67;0.80;;;;;;;;;;5036151;28;20583;-76
2022/12/07 12:17:34;;;;;;;2.45;0.57;;;;;;;;;;5064166;28;20516;-75
2022/12/07 12:20:00;;;;;;;2.53;0.93;;;;;;;;;;5050398;28;20139;-75
2022/12/07 12:22:34;;;;;;;2.20;0.60;;;;;;;;;;5045160;28;20058;-77
2022/12/07 12:25:03;;;;;;;3.45;0.63;;;;;;;;;;5063417;28;20051;-76
2022/12/07 12:27:34;;;;;;;4.03;1.02;;;;;;;;;;5051257;28;20055;-74
2022/12/07 12:30:02;;;;;;;4.72;0.68;;;;;;;;;;5052937;28;20045;-75
2022/12/07 12:32:30;;;;;;;2.10;0.80;;;;;;;;;;5071401;28;20082;-76
2022/12/07 12:34:57;;;;;;;5.28;0.88;;;;;;;;;;5056566;28;20054;-76
2022/12/07 12:37:35;;;;;;;7.22;0.80;;;;;;;;;;5071062;28;20064;-77
2022/12/07 12:40:16;;;;;;;5.35;0.80;;;;;;;;;;5057314;28;20432;-77
2022/12/07 12:42:50;;;;;;;2.67;0.60;;;;;;;;;;5056051;28;20131;-77
2022/12/07 12:45:27;;;;;;;5.35;1.13;;;;;;;;;;5042286;28;20095;-77
2022/12/07 12:47:57;;;;;;;5.30;0.73;;;;;;;;;;5039074;28;20047;-77
2022/12/07 12:50:24;;;;;;;10.60;1.08;;;;;;;;;;5069940;28;21980;-80
2022/12/07 12:53:03;;;;;;;5.13;1.05;;;;;;;;;;5066442;28;20546;-78
2022/12/07 12:55:48;;;;;;;4.18;0.93;;;;;;;;;;5066008;28;20058;-78
2022/12/07 12:58:20;;;;;;;15.50;1.45;;;;;;;;;;5071672;28;20047;-77
2022/12/07 13:00:46;;;;;;;12.13;1.08;;;;;;;;;;5058523;28;20059;-78
2022/12/07 13:03:42;;;;;;;11.45;1.35;;;;;;;;;;5075766;28;20110;-79
2022/12/07 13:06:19;;;;;;;6.78;1.30;;;;;;;;;;5053537;28;20443;-77
2022/12/07 13:08:46;;;;;;;6.25;1.13;;;;;;;;;;5057969;28;20082;-77
2022/12/07 13:11:19;;;;;;;9.88;1.58;;;;;;;;;;5076069;28;20634;-77
2022/12/07 13:13:45;;;;;;;10.73;1.40;;;;;;;;;;5063649;28;20443;-78
2022/12/07 13:16:11;;;;;;;5.28;1.10;;;;;;;;;;5046184;28;20086;-78
2022/12/07 13:18:38;;;;;;;10.27;1.10;;;;;;;;;;5057516;28;20070;-79
2022/12/07 13:21:07;;;;;;;5.75;1.10;;;;;;;;;;5045993;28;20052;-78
2022/12/07 13:23:37;;;;;;;3.40;1.00;;;;;;;;;;5066996;28;20975;-78
2022/12/07 13:26:15;;;;;;;2.33;0.65;;;;;;;;;;5055777;28;21664;-79
2022/12/07 13:28:43;;;;;;;1.92;0.60;;;;;;;;;;5062015;28;20036;-81
2022/12/07 13:31:13;;;;;;;2.08;0.68;;;;;;;;;;5074884;28;20048;-81
2022/12/07 13:33:39;;;;;;;5.53;0.90;;;;;;;;;;5082305;28;20060;-80
2022/12/07 13:36:10;;;;;;;8.02;0.77;;;;;;;;;;5070532;28;20048;-80
2022/12/07 13:38:38;;;;;;;6.60;1.13;;;;;;;;;;5047642;28;20536;-80
2022/12/07 13:41:15;;;;;;;4.80;0.73;;;;;;;;;;5057687;28;20168;-80
2022/12/07 13:43:46;;;;;;;3.42;0.50;;;;;;;;;;5046601;28;20080;-80
2022/12/07 13:46:18;;;;;;;4.57;0.75;;;;;;;;;;5062951;28;20062;-80
2022/12/07 13:48:46;;;;;;;3.60;0.60;;;;;;;;;;5062873;28;20048;-81
2022/12/07 13:51:21;;;;;;;7.15;1.50;;;;;;;;;;5073437;28;20047;-79
2022/12/07 13:53:52;;;;;;;3.65;0.90;;;;;;;;;;5059013;28;20538;-78
2022/12/07 13:56:19;;;;;;;4.10;1.23;;;;;;;;;;5044973;28;20142;-81
2022/12/07 13:58:45;;;;;;;4.53;1.50;;;;;;;;;;5049379;28;20067;-79
2022/12/07 14:01:13;;;;;;;2.63;0.77;;;;;;;;;;5046519;28;20066;-79
2022/12/07 14:03:39;;;;;;;3.25;0.60;;;;;;;;;;5028344;28;20254;-79
2022/12/07 14:06:08;;;;;;;5.85;1.02;;;;;;;;;;5067706;28;20128;-80
2022/12/07 14:08:34;;;;;;;6.55;1.05;;;;;;;;;;5063237;28;20223;-80
2022/12/07 14:11:01;;;;;;;5.45;1.05;;;;;;;;;;5048687;28;20063;-80
2022/12/07 14:13:30;;;;;;;6.78;1.25;;;;;;;;;;5053231;28;20043;-80
2022/12/07 14:15:58;;;;;;;8.85;1.25;;;;;;;;;;5081244;28;20052;-79
2022/12/07 14:18:36;;;;;;;4.85;0.80;;;;;;;;;;5064147;28;20044;-80
2022/12/07 14:21:06;;;;;;;4.50;0.90;;;;;;;;;;5074785;28;20796;-80
2022/12/07 14:23:32;;;;;;;5.28;0.80;;;;;;;;;;5075349;28;20075;-80
2022/12/07 14:26:11;;;;;;;8.07;1.45;;;;;;;;;;5077553;28;20072;-80
2022/12/07 14:28:37;;;;;;;3.95;0.98;;;;;;;;;;5063345;28;20044;-79
2022/12/07 14:31:04;;;;;;;3.35;0.93;;;;;;;;;;5073276;28;20040;-79
2022/12/07 14:33:30;;;;;;;6.15;1.63;;;;;;;;;;5061720;28;20396;-79
2022/12/07 14:35:57;;;;;;;6.57;1.20;;;;;;;;;;5075569;28;20067;-79
2022/12/07 14:38:24;;;;;;;6.28;1.20;;;;;;;;;;5073834;28;20048;-79
2022/12/07 14:40:51;;;;;;;7.43;1.30;;;;;;;;;;5067129;28;20527;-79
2022/12/07 14:43:17;;;;;;;7.65;1.23;;;;;;;;;;5054375;28;20086;-79
2022/12/07 14:45:43;;;;;;;9.25;2.70;;;;;;;;;;5052236;28;20052;-78
2022/12/07 14:48:13;;;;;;;8.98;1.30;;;;;;;;;;5033938;28;20041;-78
2022/12/07 14:50:45;;;;;;;5.68;0.80;;;;;;;;;;5051927;28;20057;-78
2022/12/07 14:53:15;;;;;;;7.75;1.30;;;;;;;;;;5052088;28;20044;-78
2022/12/07 14:55:41;;;;;;;6.53;1.45;;;;;;;;;;5064886;28;21490;-78
2022/12/07 14:58:14;;;;;;;6.28;1.23;;;;;;;;;;5068674;28;20048;-79